Time;durP1;ratioP1;P1;durP2;ratioP2;P2;SDS_P1;SDS_P2;PMS_P1;PMS_P2;Temp;Humidity;BMP_temperature;BMP_pressure;BME280_temperature;BME280_humidity;BME280_pressure;Samples;Min_cycle;Max_cycle;Signal;HPM_P1;HPM_P2
2021/03/27 05:47:33;;;;;;;6.93;2.80;;;;;;;;;;6141288;22;883534;-79
2021/03/27 05:50:17;;;;;;;3.38;1.27;;;;;;;;;;6198095;23;20036;-79
2021/03/27 05:52:55;;;;;;;3.45;1.70;;;;;;;;;;6196864;23;20036;-78
2021/03/27 05:55:30;;;;;;;9.23;1.95;;;;;;;;;;6197496;23;20001;-79
2021/03/27 05:57:56;;;;;;;4.40;1.33;;;;;;;;;;6200584;23;19997;-78
2021/03/27 06:03:00;;;;;;;3.70;1.30;;;;;;;;;;6138058;23;20020;-81
2021/03/27 06:05:44;;;;;;;3.97;1.10;;;;;;;;;;6111063;23;20006;-83
2021/03/27 06:08:35;;;;;;;3.78;1.35;;;;;;;;;;6138498;23;20012;-81
2021/03/27 06:11:21;;;;;;;3.33;1.30;;;;;;;;;;6084064;23;20591;-83
2021/03/27 06:14:05;;;;;;;5.43;1.70;;;;;;;;;;6108547;23;20006;-82
2021/03/27 06:16:45;;;;;;;5.25;1.50;;;;;;;;;;6107051;23;20337;-82
2021/03/27 06:19:25;;;;;;;5.95;1.75;;;;;;;;;;6109527;23;20033;-82
2021/03/27 06:22:09;;;;;;;5.55;1.52;;;;;;;;;;6083277;23;20010;-82
2021/03/27 06:24:38;;;;;;;6.03;1.38;;;;;;;;;;6107492;23;20018;-82
2021/03/27 06:27:23;;;;;;;4.68;2.42;;;;;;;;;;6109323;23;20002;-83
2021/03/27 06:30:07;;;;;;;8.85;2.28;;;;;;;;;;6106413;23;20010;-81
2021/03/27 06:32:51;;;;;;;4.05;1.50;;;;;;;;;;6108539;23;20437;-82
2021/03/27 06:35:30;;;;;;;6.53;2.15;;;;;;;;;;6104996;23;20039;-81
2021/03/27 06:38:15;;;;;;;5.32;1.55;;;;;;;;;;6080602;23;20010;-83
2021/03/27 06:41:00;;;;;;;5.93;2.00;;;;;;;;;;6105378;23;19998;-82
2021/03/27 06:43:44;;;;;;;4.65;2.00;;;;;;;;;;6080339;23;20010;-82
2021/03/27 06:46:13;;;;;;;8.52;1.75;;;;;;;;;;6104084;23;20275;-82
2021/03/27 06:48:59;;;;;;;4.97;1.90;;;;;;;;;;6098117;23;20021;-82
2021/03/27 06:51:44;;;;;;;7.22;2.45;;;;;;;;;;6030646;23;20006;-81
2021/03/27 06:54:21;;;;;;;3.15;1.63;;;;;;;;;;6099645;23;20006;-82
2021/03/27 06:56:58;;;;;;;7.38;1.75;;;;;;;;;;6097199;23;20459;-82
2021/03/27 06:59:42;;;;;;;5.18;1.45;;;;;;;;;;6098336;23;20377;-82
2021/03/27 07:02:28;;;;;;;8.88;2.03;;;;;;;;;;6096792;23;20054;-82
2021/03/27 07:05:00;;;;;;;8.10;2.60;;;;;;;;;;6072367;23;20006;-83
2021/03/27 07:07:49;;;;;;;9.23;4.25;;;;;;;;;;6096423;23;20024;-81
2021/03/27 07:10:30;;;;;;;12.13;4.40;;;;;;;;;;6072939;23;20498;-83
2021/03/27 07:13:08;;;;;;;5.22;2.47;;;;;;;;;;6073653;23;20041;-82
2021/03/27 07:18:01;;;;;;;25.92;13.32;;;;;;;;;;5118969;27;20343;-83
2021/03/27 07:20:47;;;;;;;7.18;3.47;;;;;;;;;;5099469;28;20112;-84
2021/03/27 07:23:15;;;;;;;3.78;1.40;;;;;;;;;;5102557;28;20047;-83
2021/03/27 07:25:56;;;;;;;6.10;1.55;;;;;;;;;;5095428;28;20023;-83
2021/03/27 07:28:31;;;;;;;4.90;1.50;;;;;;;;;;5098763;28;20028;-83
2021/03/27 07:31:17;;;;;;;6.32;1.55;;;;;;;;;;5119573;28;20100;-83
2021/03/27 07:33:58;;;;;;;3.97;1.13;;;;;;;;;;5068854;28;20040;-82
2021/03/27 07:36:33;;;;;;;4.45;1.25;;;;;;;;;;5117334;28;20046;-83
2021/03/27 07:39:06;;;;;;;4.57;1.73;;;;;;;;;;5094708;28;20028;-83
2021/03/27 07:41:41;;;;;;;5.22;2.10;;;;;;;;;;5102813;28;20027;-84
2021/03/27 07:44:26;;;;;;;7.97;1.90;;;;;;;;;;5098870;28;20024;-82
2021/03/27 07:47:17;;;;;;;5.63;1.67;;;;;;;;;;5094505;28;20515;-83
2021/03/27 07:49:48;;;;;;;7.85;1.48;;;;;;;;;;5093620;28;20027;-84
2021/03/27 07:52:34;;;;;;;6.07;1.33;;;;;;;;;;5116678;28;20495;-83
2021/03/27 07:55:19;;;;;;;8.07;1.63;;;;;;;;;;5100043;28;20040;-83
2021/03/27 07:57:54;;;;;;;7.07;1.83;;;;;;;;;;5117264;28;20541;-83
2021/03/27 08:00:22;;;;;;;6.07;1.88;;;;;;;;;;5103697;28;20024;-82
2021/03/27 08:02:48;;;;;;;4.72;1.30;;;;;;;;;;5097833;28;20070;-83
2021/03/27 08:05:32;;;;;;;6.00;2.42;;;;;;;;;;5105881;28;20019;-84
2021/03/27 08:08:04;;;;;;;3.40;1.40;;;;;;;;;;5091654;28;20089;-83
2021/03/27 08:10:35;;;;;;;3.70;1.95;;;;;;;;;;5102754;28;20054;-83
2021/03/27 08:13:10;;;;;;;6.03;1.57;;;;;;;;;;5089640;28;20034;-83
2021/03/27 08:15:54;;;;;;;3.97;1.52;;;;;;;;;;5092542;28;20052;-82
2021/03/27 08:18:38;;;;;;;5.80;1.38;;;;;;;;;;5105058;28;20020;-81
2021/03/27 08:21:03;;;;;;;14.82;2.67;;;;;;;;;;5097168;28;20035;-83
2021/03/27 08:23:41;;;;;;;4.22;1.88;;;;;;;;;;5092023;28;20025;-83
2021/03/27 08:26:16;;;;;;;5.90;1.20;;;;;;;;;;5088962;28;20365;-84
2021/03/27 08:29:01;;;;;;;7.82;1.42;;;;;;;;;;5084592;28;20041;-83
2021/03/27 08:31:45;;;;;;;4.78;1.80;;;;;;;;;;5089771;28;20079;-83
2021/03/27 08:34:29;;;;;;;7.60;2.80;;;;;;;;;;5083491;28;20078;-84
2021/03/27 08:37:05;;;;;;;6.20;1.30;;;;;;;;;;5074547;28;20055;-83
2021/03/27 08:39:58;;;;;;;7.20;2.15;;;;;;;;;;5077271;28;20016;-84
2021/03/27 08:42:24;;;;;;;4.88;1.60;;;;;;;;;;5076407;28;20047;-83
2021/03/27 08:45:13;;;;;;;9.80;1.98;;;;;;;;;;5076507;28;20068;-83
2021/03/27 08:47:44;;;;;;;4.88;1.58;;;;;;;;;;5066735;28;20025;-83
2021/03/27 08:50:28;;;;;;;18.55;7.47;;;;;;;;;;5072504;28;20048;-84
2021/03/27 08:53:00;;;;;;;9.85;3.78;;;;;;;;;;5088723;28;20063;-83
2021/03/27 08:55:33;;;;;;;7.35;1.83;;;;;;;;;;5077777;28;20078;-83
2021/03/27 08:58:17;;;;;;;5.70;1.63;;;;;;;;;;5076896;28;20028;-83
2021/03/27 09:00:46;;;;;;;10.05;1.92;;;;;;;;;;5075270;28;20059;-83
2021/03/27 09:03:35;;;;;;;6.60;2.35;;;;;;;;;;5071568;28;20069;-83
2021/03/27 09:08:33;;;;;;;10.57;3.55;;;;;;;;;;5112681;27;20400;-83
2021/03/27 09:11:08;;;;;;;8.55;3.72;;;;;;;;;;5122626;28;20073;-82
2021/03/27 09:13:43;;;;;;;9.93;3.65;;;;;;;;;;5125581;28;20107;-83
2021/03/27 09:16:08;;;;;;;7.80;2.35;;;;;;;;;;5117324;28;20506;-83
2021/03/27 09:18:57;;;;;;;6.30;1.63;;;;;;;;;;5112587;28;20028;-83
2021/03/27 09:21:26;;;;;;;10.25;2.88;;;;;;;;;;5118440;27;20015;-82
2021/03/27 09:24:10;;;;;;;10.27;2.67;;;;;;;;;;5121444;28;20023;-82
2021/03/27 09:29:03;;;;;;;5.10;1.55;;;;;;;;;;5119595;27;20357;-85
2021/03/27 09:31:50;;;;;;;4.03;1.48;;;;;;;;;;5120623;28;20502;-83
2021/03/27 09:34:34;;;;;;;7.63;1.83;;;;;;;;;;5113978;28;20442;-87
2021/03/27 09:37:05;;;;;;;6.10;1.95;;;;;;;;;;5114778;28;20024;-85
2021/03/27 09:39:31;;;;;;;;;;;;;;;;;;5111438;28;20026;-85
2021/03/27 09:42:16;;;;;;;7.00;1.95;;;;;;;;;;5112698;28;19912;-84
2021/03/27 09:44:44;;;;;;;5.93;1.77;;;;;;;;;;5125152;28;20019;-84
2021/03/27 09:47:27;;;;;;;3.80;1.30;;;;;;;;;;5108428;28;20016;-84
2021/03/27 09:49:57;;;;;;;9.32;1.95;;;;;;;;;;5104912;28;20372;-84
2021/03/27 09:52:40;;;;;;;5.75;1.23;;;;;;;;;;5108566;27;20016;-85
2021/03/27 09:55:15;;;;;;;7.07;1.92;;;;;;;;;;5102189;28;20020;-85
2021/03/27 09:57:51;;;;;;;7.70;1.48;;;;;;;;;;5112335;28;20046;-86
2021/03/27 10:00:21;;;;;;;9.05;2.80;;;;;;;;;;5118828;28;20396;-85
2021/03/27 10:03:05;;;;;;;8.13;1.75;;;;;;;;;;5115885;28;20034;-85
2021/03/27 10:05:31;;;;;;;11.13;2.00;;;;;;;;;;5125688;28;20019;-85
2021/03/27 10:08:03;;;;;;;7.72;1.70;;;;;;;;;;5113392;28;20020;-84
2021/03/27 10:10:48;;;;;;;5.53;1.77;;;;;;;;;;5105795;28;20031;-85
2021/03/27 10:13:24;;;;;;;4.60;1.30;;;;;;;;;;5119409;28;20480;-84
2021/03/27 10:15:54;;;;;;;6.97;2.33;;;;;;;;;;5106754;28;20023;-85
2021/03/27 10:18:23;;;;;;;9.30;3.10;;;;;;;;;;5118766;28;20020;-84
2021/03/27 10:20:52;;;;;;;11.40;2.30;;;;;;;;;;5123350;27;20019;-85
2021/03/27 10:23:30;;;;;;;7.50;2.00;;;;;;;;;;5118580;27;20056;-84
2021/03/27 10:26:14;;;;;;;6.82;1.67;;;;;;;;;;5110679;28;20050;-85
2021/03/27 10:28:44;;;;;;;6.45;1.77;;;;;;;;;;5118047;28;20539;-84
2021/03/27 10:31:16;;;;;;;4.40;1.63;;;;;;;;;;5122099;28;20027;-84
2021/03/27 10:33:46;;;;;;;7.32;2.03;;;;;;;;;;5111208;28;20012;-85
2021/03/27 10:36:37;;;;;;;7.47;2.78;;;;;;;;;;5125330;28;20027;-84
2021/03/27 10:39:02;;;;;;;8.93;2.13;;;;;;;;;;5110436;28;20070;-84
2021/03/27 10:41:47;;;;;;;6.15;1.77;;;;;;;;;;5106736;28;20027;-84
2021/03/27 10:44:12;;;;;;;4.93;1.80;;;;;;;;;;5108030;28;20019;-85
2021/03/27 10:46:39;;;;;;;7.53;2.35;;;;;;;;;;5102582;28;20023;-85
2021/03/27 10:49:05;;;;;;;12.63;2.55;;;;;;;;;;5106115;28;20055;-84
2021/03/27 10:51:37;;;;;;;9.63;2.63;;;;;;;;;;5108565;28;20073;-85
2021/03/27 10:54:02;;;;;;;7.18;2.97;;;;;;;;;;5094271;28;20525;-85
2021/03/27 10:56:34;;;;;;;9.60;3.80;;;;;;;;;;5104660;28;20054;-85
2021/03/27 10:59:00;;;;;;;8.68;2.33;;;;;;;;;;5099154;28;20024;-85
2021/03/27 11:01:26;;;;;;;4.15;2.08;;;;;;;;;;5096329;28;20404;-86
2021/03/27 11:04:00;;;;;;;8.25;1.85;;;;;;;;;;5080240;28;20032;-84
2021/03/27 11:06:32;;;;;;;11.18;2.03;;;;;;;;;;5093255;28;20024;-85
2021/03/27 11:09:27;;;;;;;10.18;2.25;;;;;;;;;;5090464;28;20041;-85
2021/03/27 11:11:53;;;;;;;7.30;2.47;;;;;;;;;;5091389;28;20024;-85
2021/03/27 11:14:21;;;;;;;7.82;2.42;;;;;;;;;;5084207;28;20058;-85
2021/03/27 11:16:56;;;;;;;5.10;2.70;;;;;;;;;;5088081;28;20043;-85
2021/03/27 11:19:31;;;;;;;10.40;3.45;;;;;;;;;;5097465;28;20024;-85
2021/03/27 11:22:23;;;;;;;8.40;2.45;;;;;;;;;;5090654;28;20077;-85
2021/03/27 11:25:08;;;;;;;9.70;2.60;;;;;;;;;;5052037;28;20024;-85
2021/03/27 11:27:52;;;;;;;9.10;2.33;;;;;;;;;;5088114;28;20025;-85
2021/03/27 11:30:36;;;;;;;10.25;1.80;;;;;;;;;;5095560;28;20039;-85
2021/03/27 11:33:15;;;;;;;8.93;1.50;;;;;;;;;;5089324;28;20085;-84
2021/03/27 11:35:46;;;;;;;6.30;1.67;;;;;;;;;;5090217;28;20020;-84
2021/03/27 11:38:31;;;;;;;12.05;2.75;;;;;;;;;;5091057;28;20024;-84
2021/03/27 11:41:01;;;;;;;10.35;2.40;;;;;;;;;;5093129;28;20024;-84
2021/03/27 11:43:45;;;;;;;10.13;2.22;;;;;;;;;;5084703;28;20031;-84
2021/03/27 11:46:30;;;;;;;10.68;2.67;;;;;;;;;;5089979;28;20039;-85
2021/03/27 11:49:08;;;;;;;8.57;1.90;;;;;;;;;;5082816;28;20017;-84
2021/03/27 11:51:46;;;;;;;12.18;2.03;;;;;;;;;;5090039;28;20036;-85
2021/03/27 11:54:26;;;;;;;9.02;2.00;;;;;;;;;;5090394;28;20020;-84
2021/03/27 11:56:59;;;;;;;5.72;1.83;;;;;;;;;;5095278;28;20020;-84
2021/03/27 12:02:46;;;;;;;7.28;2.70;;;;;;;;;;5097734;28;20043;-86
2021/03/27 12:05:27;;;;;;;10.27;2.30;;;;;;;;;;5102860;28;20104;-86
2021/03/27 12:08:14;;;;;;;11.07;1.98;;;;;;;;;;5108268;28;20110;-85
2021/03/27 12:10:40;;;;;;;9.18;2.65;;;;;;;;;;5087663;28;20432;-86
2021/03/27 12:13:14;;;;;;;7.97;2.65;;;;;;;;;;5099482;28;20020;-85
2021/03/27 12:15:39;;;;;;;8.38;2.33;;;;;;;;;;5098933;28;20024;-85
2021/03/27 12:18:11;;;;;;;8.50;2.33;;;;;;;;;;5102569;28;20058;-85
2021/03/27 12:20:55;;;;;;;6.25;1.65;;;;;;;;;;5104899;28;20024;-86
2021/03/27 12:23:39;;;;;;;9.10;2.58;;;;;;;;;;5103966;28;20023;-85
2021/03/27 12:26:08;;;;;;;6.93;2.38;;;;;;;;;;5095847;28;20033;-85
2021/03/27 12:28:41;;;;;;;6.93;2.30;;;;;;;;;;5098137;28;20020;-85
2021/03/27 12:31:10;;;;;;;13.13;3.08;;;;;;;;;;5094578;28;20017;-85
2021/03/27 12:33:55;;;;;;;6.53;1.80;;;;;;;;;;5092818;28;20028;-85
2021/03/27 12:36:28;;;;;;;7.75;2.40;;;;;;;;;;5098152;28;20084;-85
2021/03/27 12:39:03;;;;;;;8.07;2.08;;;;;;;;;;5099596;28;20047;-85
2021/03/27 12:41:55;;;;;;;10.98;2.97;;;;;;;;;;5100202;28;20033;-86
2021/03/27 12:44:27;;;;;;;6.32;1.80;;;;;;;;;;5095913;28;20097;-85
2021/03/27 12:46:53;;;;;;;6.00;1.80;;;;;;;;;;5094415;28;20605;-85
2021/03/27 12:49:18;;;;;;;13.50;3.50;;;;;;;;;;5094193;28;20050;-84
2021/03/27 12:52:03;;;;;;;7.07;2.42;;;;;;;;;;5101579;28;20451;-86
2021/03/27 12:54:43;;;;;;;7.45;2.03;;;;;;;;;;5101918;28;20012;-85
2021/03/27 12:57:27;;;;;;;11.07;4.57;;;;;;;;;;5104754;28;20035;-85
2021/03/27 13:00:11;;;;;;;13.23;4.72;;;;;;;;;;5101849;28;20032;-85
2021/03/27 13:02:55;;;;;;;15.88;3.30;;;;;;;;;;5097264;28;20016;-85
2021/03/27 13:08:00;;;;;;;7.60;2.58;;;;;;;;;;5098774;27;20409;-85
2021/03/27 13:10:28;;;;;;;7.13;1.80;;;;;;;;;;5099480;28;20032;-85
2021/03/27 13:13:03;;;;;;;7.18;2.47;;;;;;;;;;5096750;28;20038;-85
2021/03/27 13:15:51;;;;;;;9.13;2.85;;;;;;;;;;5094744;28;20039;-81
2021/03/27 13:18:23;;;;;;;9.82;2.17;;;;;;;;;;5098332;28;20039;-86
2021/03/27 13:23:06;;;;;;;7.10;2.17;;;;;;;;;;5081582;27;20355;-86
2021/03/27 13:25:55;;;;;;;7.35;2.38;;;;;;;;;;5080404;28;20463;-86
2021/03/27 13:29:01;;;;;;;7.05;2.45;;;;;;;;;;5084032;28;20037;-86
2021/03/27 13:31:54;;;;;;;5.95;1.83;;;;;;;;;;5080230;28;20037;-86
2021/03/27 13:34:32;;;;;;;4.03;1.55;;;;;;;;;;5077818;28;20033;-86
2021/03/27 13:37:13;;;;;;;5.72;1.98;;;;;;;;;;5081242;28;20407;-85
2021/03/27 13:39:44;;;;;;;8.35;2.40;;;;;;;;;;5112801;28;20017;-86
2021/03/27 13:42:10;;;;;;;;;;;;;;;;;;5077711;28;20033;-85
2021/03/27 13:44:46;;;;;;;6.10;1.75;;;;;;;;;;5080032;28;19921;-85
2021/03/27 13:47:18;;;;;;;9.27;1.92;;;;;;;;;;5071460;28;20066;-85
2021/03/27 13:49:47;;;;;;;7.80;1.90;;;;;;;;;;5081080;28;20074;-85
2021/03/27 13:52:19;;;;;;;7.70;2.28;;;;;;;;;;5080400;28;20020;-85
2021/03/27 13:55:14;;;;;;;4.18;1.90;;;;;;;;;;5081317;28;20039;-83
2021/03/27 13:57:42;;;;;;;8.98;1.77;;;;;;;;;;5077636;28;20025;-86
2021/03/27 14:00:11;;;;;;;9.73;2.75;;;;;;;;;;5077523;28;20103;-86
2021/03/27 14:02:55;;;;;;;7.95;1.80;;;;;;;;;;5077029;28;20043;-85
2021/03/27 14:05:28;;;;;;;8.60;1.65;;;;;;;;;;5078720;28;20058;-86
2021/03/27 14:08:06;;;;;;;6.80;2.08;;;;;;;;;;5078697;28;20021;-86
2021/03/27 14:10:31;;;;;;;9.05;2.63;;;;;;;;;;5074776;28;20047;-86
2021/03/27 14:13:17;;;;;;;10.35;2.88;;;;;;;;;;5074074;28;20037;-86
2021/03/27 14:15:56;;;;;;;10.75;2.55;;;;;;;;;;5078792;28;20050;-86
2021/03/27 14:18:45;;;;;;;8.20;1.70;;;;;;;;;;5081598;28;20047;-87
2021/03/27 14:21:11;;;;;;;8.55;2.10;;;;;;;;;;5083225;28;20024;-86
2021/03/27 14:23:58;;;;;;;6.50;2.28;;;;;;;;;;5079494;28;20044;-86
2021/03/27 14:26:37;;;;;;;8.52;2.25;;;;;;;;;;5075563;28;20029;-86
2021/03/27 14:29:10;;;;;;;9.27;2.63;;;;;;;;;;5076213;28;20009;-86
2021/03/27 14:31:45;;;;;;;5.95;2.20;;;;;;;;;;5081273;28;20350;-86
2021/03/27 14:34:30;;;;;;;9.77;2.28;;;;;;;;;;5065478;28;20025;-86
2021/03/27 14:37:03;;;;;;;5.75;2.47;;;;;;;;;;5066670;28;20052;-86
2021/03/27 14:39:40;;;;;;;5.00;1.50;;;;;;;;;;5063202;28;20031;-85
2021/03/27 14:42:09;;;;;;;5.40;1.85;;;;;;;;;;5064056;28;20024;-85
2021/03/27 14:46:56;;;;;;;8.38;2.55;;;;;;;;;;5124169;27;20367;-86
2021/03/27 14:49:34;;;;;;;5.18;2.30;;;;;;;;;;5121534;28;20093;-83
2021/03/27 14:52:14;;;;;;;7.15;2.58;;;;;;;;;;5119202;28;20668;-81
2021/03/27 14:54:59;;;;;;;7.00;1.95;;;;;;;;;;5110411;28;20031;-83
2021/03/27 14:57:30;;;;;;;6.55;1.70;;;;;;;;;;5119564;28;20030;-83
2021/03/27 15:00:09;;;;;;;5.88;2.42;;;;;;;;;;5116389;28;20567;-83
2021/03/27 15:03:21;;;;;;;9.13;2.10;;;;;;;;;;5075071;28;20040;-83
2021/03/27 15:05:51;;;;;;;5.65;2.00;;;;;;;;;;5114303;28;20563;-82
2021/03/27 15:08:28;;;;;;;9.82;2.33;;;;;;;;;;5115329;28;20447;-82
2021/03/27 15:10:58;;;;;;;9.40;2.45;;;;;;;;;;5116447;28;20043;-83
2021/03/27 15:13:39;;;;;;;8.30;3.13;;;;;;;;;;5120788;28;20106;-83
2021/03/27 15:18:41;;;;;;;5.97;1.90;;;;;;;;;;5074961;27;1240483;-83
2021/03/27 15:21:11;;;;;;;10.30;2.90;;;;;;;;;;5097344;28;20067;-83
2021/03/27 15:23:42;;;;;;;11.95;2.08;;;;;;;;;;5090941;28;20028;-82
2021/03/27 15:29:17;;;;;;;11.63;2.83;;;;;;;;;;5112160;28;20042;-83
2021/03/27 15:31:45;;;;;;;6.95;2.42;;;;;;;;;;5109051;28;20028;-83
2021/03/27 15:34:12;;;;;;;10.00;3.35;;;;;;;;;;5087348;28;20024;-82
2021/03/27 15:36:56;;;;;;;6.97;1.83;;;;;;;;;;5108317;28;20310;-83
2021/03/27 15:39:27;;;;;;;9.98;2.50;;;;;;;;;;5115635;28;20024;-83
2021/03/27 15:41:53;;;;;;;;;;;;;;;;;;5085753;28;20035;-83
2021/03/27 15:44:20;;;;;;;8.45;2.38;;;;;;;;;;5097067;28;19912;-83
2021/03/27 15:46:49;;;;;;;6.90;2.50;;;;;;;;;;5082696;28;20039;-83
2021/03/27 15:49:21;;;;;;;8.30;2.85;;;;;;;;;;5102474;28;20020;-83
2021/03/27 15:54:45;;;;;;;9.07;2.65;;;;;;;;;;5122585;27;20705;-83
2021/03/27 18:02:30;;;;;;;14.23;6.25;;;;;;;;;;5101178;28;20513;-85
2021/03/27 18:05:01;;;;;;;11.13;4.70;;;;;;;;;;5093911;28;20024;-82
2021/03/27 18:07:32;;;;;;;14.35;4.10;;;;;;;;;;5088128;28;20400;-85
2021/03/27 18:10:05;;;;;;;10.98;3.83;;;;;;;;;;5083042;28;20025;-85
2021/03/27 18:12:42;;;;;;;9.65;3.88;;;;;;;;;;5085361;28;20089;-88
2021/03/27 18:15:19;;;;;;;10.68;3.00;;;;;;;;;;5083879;28;20048;-85
2021/03/27 18:18:05;;;;;;;9.88;2.85;;;;;;;;;;5086692;28;20024;-86
2021/03/27 18:20:39;;;;;;;10.10;3.08;;;;;;;;;;5080764;28;20056;-84
2021/03/27 18:23:25;;;;;;;9.90;4.13;;;;;;;;;;5081826;28;20027;-83
2021/03/27 18:25:57;;;;;;;15.13;5.22;;;;;;;;;;5087755;28;20565;-83
2021/03/27 18:28:28;;;;;;;15.15;4.85;;;;;;;;;;5082136;28;20089;-83
2021/03/27 18:31:04;;;;;;;12.27;3.92;;;;;;;;;;5087567;28;20028;-86
2021/03/27 18:33:49;;;;;;;11.07;5.18;;;;;;;;;;5084461;28;20038;-85
2021/03/27 18:36:29;;;;;;;14.98;5.18;;;;;;;;;;5086985;28;20081;-85
2021/03/27 18:39:18;;;;;;;21.75;8.57;;;;;;;;;;5083784;28;20052;-85
2021/03/27 18:41:48;;;;;;;23.38;10.90;;;;;;;;;;5086588;28;20027;-85
2021/03/27 18:44:16;;;;;;;50.92;23.48;;;;;;;;;;5084371;28;20024;-85
2021/03/27 18:46:47;;;;;;;65.57;26.77;;;;;;;;;;5086889;28;20034;-85
2021/03/27 18:49:14;;;;;;;112.18;37.60;;;;;;;;;;5088505;28;20024;-85
2021/03/27 18:51:48;;;;;;;57.13;22.95;;;;;;;;;;5082722;28;20155;-84
2021/03/27 18:54:17;;;;;;;49.67;19.67;;;;;;;;;;5083056;28;20025;-84
2021/03/27 18:56:45;;;;;;;65.43;24.88;;;;;;;;;;5080824;28;20016;-85
2021/03/27 18:59:19;;;;;;;44.10;19.58;;;;;;;;;;5085157;28;20021;-85
2021/03/27 19:01:48;;;;;;;31.85;14.07;;;;;;;;;;5088167;28;20304;-84
2021/03/27 19:04:13;;;;;;;38.83;17.55;;;;;;;;;;5082665;28;20060;-85
2021/03/27 19:06:43;;;;;;;29.25;13.93;;;;;;;;;;5086616;28;20085;-85
2021/03/27 19:09:14;;;;;;;28.00;11.43;;;;;;;;;;5082250;28;20100;-86
2021/03/27 19:11:45;;;;;;;23.30;9.70;;;;;;;;;;5084672;28;20602;-85
2021/03/27 19:14:13;;;;;;;23.05;8.48;;;;;;;;;;5086291;28;20042;-85
2021/03/27 19:16:42;;;;;;;15.10;7.25;;;;;;;;;;5081320;28;20055;-84
2021/03/27 19:19:17;;;;;;;13.63;5.90;;;;;;;;;;5083247;28;20036;-85
2021/03/27 19:21:51;;;;;;;10.82;4.88;;;;;;;;;;5085354;28;20094;-85
2021/03/27 19:24:16;;;;;;;9.20;4.28;;;;;;;;;;5074639;28;20047;-85
2021/03/27 19:26:48;;;;;;;8.45;2.95;;;;;;;;;;5085207;28;20403;-85
2021/03/27 19:29:19;;;;;;;8.80;2.90;;;;;;;;;;5085056;28;20056;-85
2021/03/27 19:31:55;;;;;;;10.32;3.20;;;;;;;;;;5086052;28;20059;-85
2021/03/27 19:34:23;;;;;;;8.95;2.58;;;;;;;;;;5086729;28;20111;-83
2021/03/27 19:36:51;;;;;;;10.20;2.75;;;;;;;;;;5074612;28;20020;-85
2021/03/27 19:39:19;;;;;;;7.97;2.63;;;;;;;;;;5087361;28;20062;-85
2021/03/27 19:41:52;;;;;;;7.10;2.42;;;;;;;;;;5075619;28;20051;-85
2021/03/27 19:44:30;;;;;;;9.35;3.05;;;;;;;;;;5076271;28;20028;-84
2021/03/27 19:47:05;;;;;;;6.97;2.30;;;;;;;;;;5083648;28;20056;-85
2021/03/27 19:50:06;;;;;;;7.70;2.55;;;;;;;;;;5086309;28;20496;-84
2021/03/27 19:52:36;;;;;;;10.43;3.20;;;;;;;;;;5037834;28;20071;-86
2021/03/27 19:55:10;;;;;;;7.78;2.78;;;;;;;;;;5074626;28;20625;-85
2021/03/27 19:57:54;;;;;;;8.82;3.33;;;;;;;;;;5084536;28;20119;-85
2021/03/27 20:02:44;;;;;;;10.00;3.17;;;;;;;;;;5101127;27;20418;-84
2021/03/27 20:05:09;;;;;;;;;;;;;;;;;;5093536;28;20157;-86
2021/03/27 20:07:37;;;;;;;4.93;2.10;;;;;;;;;;5110711;28;19920;-83
2021/03/27 20:10:06;;;;;;;7.00;2.45;;;;;;;;;;5094124;28;20073;-83
2021/03/27 20:12:51;;;;;;;5.70;2.15;;;;;;;;;;5098347;28;20024;-83
2021/03/27 20:22:07;;;;;;;7.10;2.38;;;;;;;;;;5067854;28;20028;-82
2021/03/27 20:25:12;;;;;;;7.43;2.85;;;;;;;;;;5051656;28;20041;-82
2021/03/27 20:27:57;;;;;;;9.45;3.75;;;;;;;;;;5037397;28;20099;-82
2021/03/27 20:46:07;;;;;;;11.85;5.63;;;;;;;;;;5045992;28;20155;-83
2021/03/27 20:49:13;;;;;;;9.65;4.28;;;;;;;;;;5023411;28;20048;-81
